Time;durP1;ratioP1;P1;durP2;ratioP2;P2;SDS_P1;SDS_P2;PMS_P1;PMS_P2;Temp;Humidity;BMP_temperature;BMP_pressure;BME280_temperature;BME280_humidity;BME280_pressure;Samples;Min_cycle;Max_cycle;Signal;HPM_P1;HPM_P2
2023/08/30 00:00:18;;;;;;;12.55;10.98;;;12.70;99.90;;;;;;4975024;28;20038;-67
2023/08/30 00:02:50;;;;;;;12.77;11.40;;;12.70;99.90;;;;;;4997386;28;20389;-67
2023/08/30 00:05:22;;;;;;;12.35;11.05;;;12.70;99.90;;;;;;4969676;28;20046;-67
2023/08/30 00:07:54;;;;;;;11.95;10.77;;;12.70;99.90;;;;;;4983788;28;20541;-66
2023/08/30 00:10:26;;;;;;;14.13;11.32;;;12.70;99.90;;;;;;4983798;28;20532;-66
2023/08/30 00:12:58;;;;;;;12.63;11.32;;;12.60;99.90;;;;;;4999508;28;20570;-67
2023/08/30 00:15:30;;;;;;;13.38;11.35;;;12.60;99.90;;;;;;4983752;28;20053;-66
2023/08/30 00:18:02;;;;;;;12.73;11.02;;;12.60;99.90;;;;;;4979286;28;20129;-67
2023/08/30 00:20:29;;;;;;;16.20;12.50;;;12.60;99.90;;;;;;4977654;28;20042;-67
2023/08/30 00:22:56;;;;;;;12.75;11.00;;;12.60;99.90;;;;;;4974795;28;20046;-66
2023/08/30 00:25:27;;;;;;;13.80;11.93;;;12.60;99.90;;;;;;4982092;28;20044;-67
2023/08/30 00:27:59;;;;;;;12.43;11.13;;;12.60;99.90;;;;;;4985673;28;20046;-67
2023/08/30 00:30:33;;;;;;;11.80;10.55;;;12.70;99.90;;;;;;4998710;28;20051;-67
2023/08/30 00:33:06;;;;;;;12.02;10.40;;;12.70;99.90;;;;;;4984286;28;20047;-66
2023/08/30 00:35:38;;;;;;;12.60;11.30;;;12.70;99.90;;;;;;5000515;28;20054;-67
2023/08/30 00:38:10;;;;;;;14.02;10.43;;;12.60;99.90;;;;;;4982497;28;20050;-67
2023/08/30 00:40:42;;;;;;;12.30;11.00;;;12.70;99.90;;;;;;4994232;28;20598;-67
2023/08/30 00:43:09;;;;;;;11.35;9.73;;;12.70;99.90;;;;;;4975195;28;20039;-67
2023/08/30 00:45:41;;;;;;;12.18;10.52;;;12.60;99.90;;;;;;4974939;28;20038;-67
2023/08/30 00:48:15;;;;;;;12.15;10.90;;;12.60;99.90;;;;;;4974039;28;20046;-67
2023/08/30 00:50:48;;;;;;;12.82;10.95;;;12.60;99.90;;;;;;4980016;28;20072;-67
2023/08/30 00:53:20;;;;;;;12.63;11.32;;;12.60;99.90;;;;;;4989215;28;20538;-66
2023/08/30 00:55:52;;;;;;;12.40;10.55;;;12.60;99.90;;;;;;4989152;28;20058;-66
2023/08/30 00:58:26;;;;;;;13.30;10.90;;;12.60;99.90;;;;;;4983082;28;20070;-66
2023/08/30 01:00:54;;;;;;;12.30;11.02;;;12.60;99.90;;;;;;4984108;28;20038;-66
2023/08/30 01:03:26;;;;;;;11.90;10.60;;;12.60;99.90;;;;;;4979045;28;20057;-66
2023/08/30 01:05:58;;;;;;;16.35;11.48;;;12.60;99.90;;;;;;4970909;28;20047;-66
2023/08/30 01:08:27;;;;;;;12.50;10.20;;;12.60;99.90;;;;;;4976009;28;20049;-66
2023/08/30 01:11:24;;;;;;;12.13;10.82;;;12.50;99.90;;;;;;4975948;28;20526;-66
2023/08/30 01:14:03;;;;;;;13.05;11.48;;;12.50;99.90;;;;;;4964124;28;20045;-66
2023/08/30 01:16:36;;;;;;;12.45;11.10;;;12.50;99.90;;;;;;4999633;28;20590;-66
2023/08/30 01:19:35;;;;;;;13.88;11.75;;;12.50;99.90;;;;;;4984091;28;20133;-66
2023/08/30 01:22:26;;;;;;;13.48;12.07;;;12.50;99.90;;;;;;4982806;28;20134;-66
2023/08/30 01:25:12;;;;;;;14.55;11.85;;;12.50;99.90;;;;;;4979796;28;20038;-66
2023/08/30 01:27:40;;;;;;;14.02;12.07;;;12.40;99.90;;;;;;4977255;28;20093;-66
2023/08/30 01:30:13;;;;;;;;;;;12.40;99.90;;;;;;4974095;28;20090;-66
2023/08/30 01:32:40;;;;;;;13.18;11.30;;;12.40;99.90;;;;;;4974667;28;19922;-66
2023/08/30 01:35:19;;;;;;;13.70;11.88;;;12.40;99.90;;;;;;4988135;28;20053;-66
2023/08/30 01:37:46;;;;;;;14.57;12.60;;;12.40;99.90;;;;;;4983520;28;20388;-66
2023/08/30 01:40:20;;;;;;;14.23;11.27;;;12.40;99.90;;;;;;4987603;28;20043;-66
2023/08/30 01:42:48;;;;;;;13.50;11.90;;;12.40;99.90;;;;;;4991106;28;20054;-66
2023/08/30 01:45:16;;;;;;;15.05;11.95;;;12.40;99.90;;;;;;4992274;28;20045;-66
2023/08/30 01:47:49;;;;;;;15.60;12.88;;;12.30;99.90;;;;;;4991784;28;20035;-66
2023/08/30 01:50:21;;;;;;;12.77;11.45;;;12.40;99.90;;;;;;4989704;28;20038;-66
2023/08/30 01:52:54;;;;;;;13.38;11.20;;;12.30;99.90;;;;;;4978754;28;20042;-65
2023/08/30 01:55:22;;;;;;;13.20;10.85;;;12.30;99.90;;;;;;4994260;28;20034;-66
2023/08/30 01:57:54;;;;;;;13.43;11.20;;;12.40;99.90;;;;;;4985141;28;20047;-66
2023/08/30 02:00:21;;;;;;;15.65;12.55;;;12.30;99.90;;;;;;4986928;28;20116;-66
2023/08/30 02:02:52;;;;;;;13.45;11.23;;;12.40;99.90;;;;;;4984970;28;20281;-66
2023/08/30 02:05:19;;;;;;;13.15;10.65;;;12.40;99.90;;;;;;4991377;28;20149;-66
2023/08/30 02:08:09;;;;;;;16.48;11.93;;;12.40;99.90;;;;;;4990919;28;20046;-66
2023/08/30 02:10:45;;;;;;;14.77;10.90;;;12.40;99.90;;;;;;4990828;28;20065;-66
2023/08/30 02:13:20;;;;;;;14.25;11.80;;;12.40;99.90;;;;;;4989201;28;20137;-66
2023/08/30 02:15:55;;;;;;;13.70;11.77;;;12.30;99.90;;;;;;4978501;28;20503;-66
2023/08/30 02:18:27;;;;;;;15.27;11.68;;;12.40;99.90;;;;;;4979501;28;20092;-66
2023/08/30 02:21:00;;;;;;;14.60;12.00;;;12.40;99.90;;;;;;4984612;28;20045;-66
2023/08/30 02:23:27;;;;;;;14.50;12.02;;;12.30;99.90;;;;;;4988102;28;20537;-66
2023/08/30 02:25:56;;;;;;;14.25;11.65;;;12.30;99.90;;;;;;4990442;28;20495;-66
2023/08/30 02:28:23;;;;;;;15.23;12.75;;;12.20;99.90;;;;;;4980521;28;20030;-66
2023/08/30 02:30:53;;;;;;;15.60;12.13;;;12.20;99.90;;;;;;5005037;28;20030;-66
2023/08/30 02:33:20;;;;;;;15.48;12.10;;;12.20;99.90;;;;;;4988178;28;20452;-66
2023/08/30 02:35:53;;;;;;;14.07;11.52;;;12.20;99.90;;;;;;4991265;28;20511;-66
2023/08/30 02:38:25;;;;;;;14.52;11.50;;;12.20;99.90;;;;;;4978156;28;20061;-66
2023/08/30 02:40:57;;;;;;;14.95;11.77;;;12.20;99.90;;;;;;4981230;28;20165;-66
2023/08/30 02:43:29;;;;;;;13.98;11.07;;;12.20;99.90;;;;;;4995196;28;20049;-66
2023/08/30 02:46:03;;;;;;;14.23;10.70;;;12.30;99.90;;;;;;4999998;28;20384;-66
2023/08/30 02:48:35;;;;;;;13.20;11.15;;;12.20;99.90;;;;;;4999229;28;20039;-66
2023/08/30 02:51:07;;;;;;;13.48;10.48;;;12.30;99.90;;;;;;4989197;28;20051;-66
2023/08/30 02:53:39;;;;;;;13.23;11.30;;;12.30;99.90;;;;;;4997919;28;20602;-66
2023/08/30 02:56:11;;;;;;;12.50;11.05;;;12.20;99.90;;;;;;4987804;28;20054;-66
2023/08/30 02:58:43;;;;;;;13.65;11.57;;;12.20;99.90;;;;;;4981109;28;20050;-66
2023/08/30 03:01:15;;;;;;;15.00;11.93;;;12.20;99.90;;;;;;4988276;28;20125;-66
2023/08/30 03:03:48;;;;;;;;;;;12.20;99.90;;;;;;4989756;28;20090;-66
2023/08/30 03:06:21;;;;;;;13.85;11.75;;;12.20;99.90;;;;;;4989109;28;20375;-66
2023/08/30 03:08:48;;;;;;;14.35;11.95;;;12.20;99.90;;;;;;4999225;28;20461;-66
2023/08/30 03:11:20;;;;;;;12.93;11.13;;;12.20;99.90;;;;;;4984395;28;20034;-66
2023/08/30 03:13:50;;;;;;;13.63;10.57;;;12.20;99.90;;;;;;4989753;28;20053;-66
2023/08/30 03:16:22;;;;;;;14.85;12.20;;;12.20;99.90;;;;;;4993493;28;20046;-66
2023/08/30 03:18:50;;;;;;;13.68;11.45;;;12.30;99.90;;;;;;5005456;28;20055;-66
2023/08/30 03:21:22;;;;;;;13.90;11.50;;;12.30;99.90;;;;;;4984032;28;20242;-66
2023/08/30 03:23:56;;;;;;;14.85;11.43;;;12.30;99.90;;;;;;4999325;28;20110;-66
2023/08/30 03:26:29;;;;;;;13.13;10.63;;;12.30;99.90;;;;;;4989151;28;20038;-66
2023/08/30 03:29:01;;;;;;;13.03;10.80;;;12.30;99.90;;;;;;4980518;28;20046;-66
2023/08/30 03:31:33;;;;;;;14.50;10.90;;;12.30;99.90;;;;;;4983440;28;20515;-66
2023/08/30 03:34:05;;;;;;;15.48;12.35;;;12.20;99.90;;;;;;4974557;28;20049;-66
2023/08/30 03:36:38;;;;;;;16.80;11.38;;;12.20;99.90;;;;;;4982336;28;20552;-66
2023/08/30 03:39:10;;;;;;;14.43;11.77;;;12.30;99.90;;;;;;4981348;28;20128;-66
2023/08/30 03:41:42;;;;;;;14.73;11.70;;;12.20;99.90;;;;;;4991469;28;20337;-66
2023/08/30 03:44:14;;;;;;;14.60;12.55;;;12.20;99.90;;;;;;4989168;28;20042;-66
2023/08/30 03:46:46;;;;;;;16.40;13.18;;;12.20;99.90;;;;;;4997078;28;20057;-66
2023/08/30 03:49:18;;;;;;;16.35;13.18;;;12.10;99.90;;;;;;4983130;28;20042;-66
2023/08/30 03:51:50;;;;;;;16.15;12.70;;;12.20;99.90;;;;;;4988963;28;20133;-66
2023/08/30 03:54:17;;;;;;;15.32;12.52;;;12.10;99.90;;;;;;4980796;28;20035;-66
2023/08/30 03:56:49;;;;;;;18.73;13.50;;;12.10;99.90;;;;;;4983391;28;20129;-66
2023/08/30 03:59:22;;;;;;;16.63;13.38;;;12.10;99.90;;;;;;4996432;28;20069;-66
2023/08/30 04:01:55;;;;;;;15.60;12.88;;;12.20;99.90;;;;;;4994152;28;20046;-66
2023/08/30 04:04:22;;;;;;;15.27;13.38;;;12.10;99.90;;;;;;4974144;28;20031;-66
2023/08/30 04:06:54;;;;;;;15.15;11.98;;;12.10;99.90;;;;;;4989946;28;20164;-66
2023/08/30 04:09:26;;;;;;;16.00;12.93;;;12.10;99.90;;;;;;4987818;28;20038;-66
2023/08/30 04:12:00;;;;;;;14.73;12.32;;;12.20;99.90;;;;;;4990124;28;20042;-66
2023/08/30 04:14:32;;;;;;;;;;;12.20;99.90;;;;;;4999355;28;20121;-66
2023/08/30 04:17:04;;;;;;;14.38;11.60;;;12.20;99.90;;;;;;4988981;28;19947;-66
2023/08/30 04:19:35;;;;;;;17.05;12.52;;;12.20;99.90;;;;;;4983426;28;20528;-66
2023/08/30 04:22:07;;;;;;;15.07;12.63;;;12.20;99.90;;;;;;4987978;28;20458;-66
2023/08/30 04:24:39;;;;;;;16.75;13.00;;;12.20;99.90;;;;;;4979141;28;20042;-66
2023/08/30 04:27:11;;;;;;;16.50;13.07;;;12.20;99.90;;;;;;4987280;28;20134;-66
2023/08/30 04:29:45;;;;;;;14.88;11.52;;;12.20;99.90;;;;;;4989023;28;20059;-66
2023/08/30 04:32:16;;;;;;;14.18;12.35;;;12.20;99.90;;;;;;4973172;28;20125;-66
2023/08/30 04:34:43;;;;;;;15.23;12.13;;;12.30;99.90;;;;;;4989209;28;20050;-66
2023/08/30 04:37:10;;;;;;;13.68;12.07;;;12.20;99.90;;;;;;4988510;28;20104;-66
2023/08/30 04:39:42;;;;;;;14.02;11.73;;;12.20;99.90;;;;;;4987392;28;20065;-66
2023/08/30 04:42:15;;;;;;;15.02;12.38;;;12.30;99.90;;;;;;4988828;28;20046;-66
2023/08/30 04:44:42;;;;;;;15.48;12.98;;;12.30;99.90;;;;;;4997319;28;20035;-66
2023/08/30 04:47:13;;;;;;;14.57;12.23;;;12.20;99.90;;;;;;4978579;28;20527;-66
2023/08/30 04:49:53;;;;;;;15.57;12.07;;;12.20;99.90;;;;;;4974913;28;20051;-66
2023/08/30 04:52:26;;;;;;;16.08;12.75;;;12.20;99.90;;;;;;4972287;28;20053;-66
2023/08/30 04:54:58;;;;;;;15.45;12.65;;;12.20;99.90;;;;;;4988565;28;20419;-66
2023/08/30 04:57:30;;;;;;;15.57;12.55;;;12.30;99.90;;;;;;4982859;28;20066;-66
2023/08/30 04:59:57;;;;;;;17.58;13.20;;;12.30;99.90;;;;;;4989020;28;20039;-66
2023/08/30 05:02:29;;;;;;;15.23;12.23;;;12.30;99.90;;;;;;4986811;28;20575;-66
2023/08/30 05:05:05;;;;;;;15.30;12.45;;;12.30;99.90;;;;;;4983656;28;20042;-66
2023/08/30 05:07:37;;;;;;;17.52;13.68;;;12.30;99.90;;;;;;4985684;28;20070;-66
2023/08/30 05:10:09;;;;;;;14.63;11.98;;;12.30;99.90;;;;;;4978156;28;20121;-66
2023/08/30 05:12:44;;;;;;;15.55;12.95;;;12.40;99.90;;;;;;4987017;28;20039;-66
2023/08/30 05:15:16;;;;;;;16.75;13.20;;;12.40;99.90;;;;;;4972577;28;20122;-66
2023/08/30 05:17:48;;;;;;;16.38;11.80;;;12.40;99.90;;;;;;4988422;28;20043;-66
2023/08/30 05:20:15;;;;;;;15.73;11.75;;;12.50;99.90;;;;;;4992858;28;20475;-66
2023/08/30 05:22:48;;;;;;;;;;;12.50;99.90;;;;;;4987206;28;20053;-66
2023/08/30 05:25:20;;;;;;;15.48;12.68;;;12.50;99.90;;;;;;5002287;28;19922;-66
2023/08/30 05:27:52;;;;;;;14.88;12.10;;;12.50;99.90;;;;;;4986486;28;20062;-66
2023/08/30 05:30:24;;;;;;;16.13;13.32;;;12.50;99.90;;;;;;4986961;28;20046;-66
2023/08/30 05:32:58;;;;;;;15.70;13.00;;;12.50;99.90;;;;;;4998926;28;20062;-66
2023/08/30 05:35:53;;;;;;;16.90;13.65;;;12.60;99.90;;;;;;4980527;28;20503;-66
2023/08/30 05:38:46;;;;;;;17.23;13.48;;;12.60;99.90;;;;;;4984592;28;20146;-66
2023/08/30 05:41:22;;;;;;;15.70;12.95;;;12.60;99.90;;;;;;4992782;28;20069;-66
2023/08/30 05:43:54;;;;;;;16.43;12.70;;;12.60;99.90;;;;;;5003833;28;20065;-66
2023/08/30 05:46:27;;;;;;;18.80;14.35;;;12.70;99.90;;;;;;4986736;28;20679;-66
2023/08/30 05:49:02;;;;;;;15.65;12.65;;;12.70;99.90;;;;;;4988135;28;20051;-66
2023/08/30 05:51:34;;;;;;;14.75;13.10;;;12.70;99.90;;;;;;4991786;28;20523;-66
2023/08/30 05:54:06;;;;;;;16.92;12.77;;;12.70;99.90;;;;;;4985083;28;20062;-66
2023/08/30 05:56:38;;;;;;;15.98;12.23;;;12.70;99.90;;;;;;4996084;28;20125;-66
2023/08/30 05:59:11;;;;;;;16.42;12.93;;;12.80;99.90;;;;;;4979201;28;20048;-66
2023/08/30 06:01:44;;;;;;;15.88;13.38;;;12.70;99.90;;;;;;4978573;28;20106;-65
2023/08/30 06:04:16;;;;;;;16.25;13.20;;;12.60;99.90;;;;;;4989294;28;20117;-66
2023/08/30 06:06:48;;;;;;;17.13;13.50;;;12.70;99.90;;;;;;4986568;28;20042;-66
2023/08/30 06:09:19;;;;;;;15.68;13.88;;;12.70;99.90;;;;;;4987188;28;20401;-66
2023/08/30 06:11:46;;;;;;;17.70;13.63;;;12.80;99.90;;;;;;5003327;28;20049;-66
2023/08/30 06:14:18;;;;;;;15.73;13.07;;;12.80;99.90;;;;;;4986469;28;20407;-66
2023/08/30 06:16:50;;;;;;;16.00;12.20;;;12.80;99.90;;;;;;4985249;28;20049;-66
2023/08/30 06:19:17;;;;;;;15.10;12.00;;;12.80;99.90;;;;;;4990716;28;20131;-66
2023/08/30 06:21:49;;;;;;;14.32;11.90;;;12.90;99.90;;;;;;4978996;28;20043;-66
2023/08/30 06:24:22;;;;;;;15.68;12.20;;;12.80;99.90;;;;;;4984144;28;20034;-66
2023/08/30 06:26:53;;;;;;;13.63;11.57;;;12.80;99.90;;;;;;4984027;28;20038;-66
2023/08/30 06:29:25;;;;;;;15.48;12.23;;;12.90;99.90;;;;;;4986580;28;20396;-66
2023/08/30 06:31:58;;;;;;;14.73;11.90;;;12.90;99.90;;;;;;4990969;28;20412;-66
2023/08/30 06:34:30;;;;;;;14.15;11.48;;;12.90;99.90;;;;;;4988236;28;20055;-66
2023/08/30 06:36:57;;;;;;;14.27;11.23;;;12.90;99.90;;;;;;4988938;28;20503;-66
2023/08/30 06:39:24;;;;;;;13.32;11.25;;;13.00;99.90;;;;;;4986476;28;20046;-66
2023/08/30 06:41:56;;;;;;;14.50;12.70;;;13.00;99.90;;;;;;4981816;28;20050;-66
2023/08/30 06:44:27;;;;;;;14.60;11.50;;;13.00;99.90;;;;;;4989163;28;20464;-66
2023/08/30 06:46:59;;;;;;;15.63;11.52;;;13.00;99.90;;;;;;4978629;28;20516;-66
2023/08/30 06:49:25;;;;;;;15.05;11.82;;;13.00;99.90;;;;;;4979338;28;20035;-66
2023/08/30 06:51:58;;;;;;;13.05;10.88;;;13.00;99.90;;;;;;5001939;28;20057;-66
2023/08/30 06:54:33;;;;;;;13.65;11.15;;;13.00;99.90;;;;;;4991065;28;20455;-66
2023/08/30 06:57:01;;;;;;;14.43;11.65;;;13.10;99.90;;;;;;4985546;28;20140;-66
2023/08/30 06:59:33;;;;;;;13.88;11.38;;;13.10;99.90;;;;;;4988828;28;20034;-66
2023/08/30 07:02:05;;;;;;;14.75;12.25;;;13.10;99.90;;;;;;4987442;28;20130;-66
2023/08/30 07:04:37;;;;;;;14.23;11.70;;;13.10;99.90;;;;;;4982969;28;20054;-66
2023/08/30 07:07:09;;;;;;;15.20;12.18;;;13.10;99.90;;;;;;4979163;28;20446;-66
2023/08/30 07:09:41;;;;;;;14.75;11.60;;;13.00;99.90;;;;;;4993940;28;20043;-66
2023/08/30 07:12:08;;;;;;;15.20;12.68;;;13.10;99.90;;;;;;4979878;28;20550;-66
2023/08/30 07:14:40;;;;;;;16.17;11.50;;;13.10;99.90;;;;;;4986647;28;20035;-66
2023/08/30 07:17:12;;;;;;;13.45;11.48;;;13.10;99.90;;;;;;4985793;28;20030;-66
2023/08/30 07:19:40;;;;;;;14.43;12.00;;;13.20;99.90;;;;;;4982328;28;20039;-66
2023/08/30 07:22:06;;;;;;;12.75;10.93;;;13.20;99.90;;;;;;5000087;28;20042;-66
2023/08/30 07:24:38;;;;;;;15.98;11.13;;;13.30;99.90;;;;;;4986987;28;20538;-66
2023/08/30 07:27:12;;;;;;;13.40;11.13;;;13.20;99.90;;;;;;4990140;28;20054;-66
2023/08/30 07:29:44;;;;;;;15.07;11.20;;;13.30;99.90;;;;;;4978954;28;20478;-66
2023/08/30 07:32:16;;;;;;;13.82;10.60;;;13.30;99.90;;;;;;4994460;28;20517;-66
2023/08/30 07:34:47;;;;;;;12.60;11.13;;;13.40;99.90;;;;;;4981111;28;20049;-66
2023/08/30 07:37:20;;;;;;;13.05;10.35;;;13.50;99.90;;;;;;4982275;28;20077;-66
2023/08/30 07:39:52;;;;;;;14.70;10.45;;;13.50;99.90;;;;;;4984768;28;20097;-66
2023/08/30 07:42:20;;;;;;;11.85;10.23;;;13.50;99.90;;;;;;4982387;28;20054;-66
2023/08/30 07:44:52;;;;;;;13.75;10.95;;;13.60;99.90;;;;;;4981925;28;20129;-66
2023/08/30 07:47:24;;;;;;;11.52;10.30;;;13.60;99.90;;;;;;4987981;28;20053;-66
2023/08/30 07:49:51;;;;;;;13.15;11.20;;;13.60;99.90;;;;;;4983346;28;20121;-66
2023/08/30 07:52:23;;;;;;;12.23;10.93;;;13.60;99.90;;;;;;4978908;28;20045;-66
2023/08/30 07:54:50;;;;;;;13.05;10.90;;;13.60;99.90;;;;;;4979718;28;20049;-66
2023/08/30 07:57:22;;;;;;;12.55;10.35;;;13.70;99.90;;;;;;4963674;28;20567;-66
2023/08/30 07:59:49;;;;;;;12.80;11.43;;;13.70;99.90;;;;;;4980314;28;20038;-66
2023/08/30 08:02:21;;;;;;;14.27;11.60;;;13.80;99.90;;;;;;4989131;28;20043;-66
2023/08/30 08:04:53;;;;;;;15.30;11.73;;;13.80;99.90;;;;;;4982588;28;20044;-66
2023/08/30 08:07:26;;;;;;;14.50;10.93;;;13.90;99.90;;;;;;4986386;28;20039;-66
2023/08/30 08:09:54;;;;;;;11.75;10.35;;;13.90;99.90;;;;;;4981833;28;20117;-66
2023/08/30 08:12:27;;;;;;;11.73;10.52;;;14.00;99.90;;;;;;4980884;28;20058;-66
2023/08/30 08:14:54;;;;;;;12.35;10.75;;;14.00;99.90;;;;;;4979454;28;20042;-65
2023/08/30 08:17:26;;;;;;;11.35;9.63;;;14.10;99.90;;;;;;4980965;28;20038;-66
2023/08/30 08:19:58;;;;;;;11.38;10.18;;;14.20;99.90;;;;;;4980624;28;20046;-66
2023/08/30 08:22:29;;;;;;;11.15;9.43;;;14.30;99.90;;;;;;4982903;28;20066;-66
2023/08/30 08:25:02;;;;;;;10.88;9.57;;;14.50;99.90;;;;;;4989363;28;20533;-66
2023/08/30 08:27:30;;;;;;;11.43;10.07;;;14.50;99.90;;;;;;4988148;28;20040;-66
2023/08/30 08:30:03;;;;;;;12.20;10.00;;;14.50;99.90;;;;;;4995287;28;20045;-66
2023/08/30 08:32:36;;;;;;;11.63;10.48;;;14.60;99.90;;;;;;4985441;28;20039;-66
2023/08/30 08:35:08;;;;;;;12.85;10.13;;;14.70;99.90;;;;;;4997617;28;20077;-66
2023/08/30 08:37:35;;;;;;;11.18;9.82;;;14.70;99.90;;;;;;4981394;28;20034;-66
2023/08/30 08:40:10;;;;;;;11.63;10.43;;;14.80;99.90;;;;;;4995852;28;20112;-66
2023/08/30 08:42:43;;;;;;;11.10;9.90;;;14.80;99.90;;;;;;4985044;28;20061;-66
2023/08/30 08:45:16;;;;;;;13.55;11.10;;;14.80;99.90;;;;;;4981726;28;20049;-66
2023/08/30 08:47:49;;;;;;;11.40;9.93;;;14.90;99.90;;;;;;4983130;28;20635;-66
2023/08/30 08:50:21;;;;;;;12.70;9.93;;;14.90;99.90;;;;;;4982290;28;20499;-66
2023/08/30 08:52:49;;;;;;;10.75;9.65;;;14.90;99.90;;;;;;4978412;28;20504;-66
2023/08/30 08:55:22;;;;;;;11.10;10.00;;;14.90;99.90;;;;;;4991068;28;20034;-66
2023/08/30 08:57:54;;;;;;;10.23;9.13;;;14.90;99.90;;;;;;4988257;28;20467;-66
2023/08/30 09:00:27;;;;;;;10.43;9.32;;;14.90;99.90;;;;;;4979886;28;20057;-66
2023/08/30 09:02:54;;;;;;;12.77;10.50;;;15.00;99.90;;;;;;4980603;28;20049;-66
2023/08/30 09:05:27;;;;;;;10.17;9.17;;;15.00;99.90;;;;;;4980760;28;20046;-66
2023/08/30 09:07:54;;;;;;;10.27;9.18;;;15.00;99.90;;;;;;4981091;28;20070;-66
2023/08/30 09:10:26;;;;;;;10.50;9.38;;;15.00;99.90;;;;;;4981266;28;20117;-66
2023/08/30 09:12:59;;;;;;;10.80;9.07;;;15.00;99.90;;;;;;4982456;28;20043;-66
2023/08/30 09:15:38;;;;;;;11.13;10.02;;;14.90;99.90;;;;;;4981735;28;20057;-66
2023/08/30 09:18:17;;;;;;;10.57;9.50;;;14.90;99.90;;;;;;4976732;28;20053;-66
2023/08/30 09:20:44;;;;;;;10.98;9.88;;;15.00;99.90;;;;;;4973117;28;20150;-66
2023/08/30 09:23:25;;;;;;;10.48;8.68;;;15.00;99.90;;;;;;4977689;28;20061;-66
2023/08/30 09:25:55;;;;;;;9.57;8.57;;;15.10;99.90;;;;;;4983934;28;20043;-66
2023/08/30 09:28:27;;;;;;;10.13;9.13;;;15.10;99.90;;;;;;4996142;28;20442;-66
2023/08/30 09:31:03;;;;;;;9.90;8.63;;;15.20;99.90;;;;;;4996807;28;20050;-66
2023/08/30 09:33:34;;;;;;;9.40;8.00;;;15.20;99.90;;;;;;4983575;28;20060;-66
2023/08/30 09:36:10;;;;;;;9.40;7.90;;;15.20;99.90;;;;;;4983116;28;20050;-66
2023/08/30 09:38:48;;;;;;;8.57;7.50;;;15.30;99.90;;;;;;4981541;28;20423;-66
2023/08/30 09:41:20;;;;;;;8.00;7.20;;;15.60;99.90;;;;;;4976845;28;20054;-66
2023/08/30 09:43:47;;;;;;;9.27;8.27;;;15.80;99.90;;;;;;4973240;28;20121;-66
2023/08/30 09:46:19;;;;;;;7.45;6.60;;;16.10;99.90;;;;;;4980559;28;20145;-66
2023/08/30 09:48:53;;;;;;;6.20;5.60;;;16.30;99.90;;;;;;4983400;28;20068;-66
2023/08/30 09:51:27;;;;;;;6.55;5.93;;;16.60;99.90;;;;;;4989272;28;20092;-64
2023/08/30 09:54:04;;;;;;;6.50;5.90;;;16.70;99.90;;;;;;4996911;28;20507;-66
2023/08/30 09:56:37;;;;;;;5.25;4.75;;;16.90;99.90;;;;;;4982535;28;20511;-66
2023/08/30 09:59:11;;;;;;;6.68;5.85;;;17.10;99.90;;;;;;4987660;28;20049;-66
2023/08/30 10:01:39;;;;;;;5.93;5.20;;;17.10;99.90;;;;;;4979209;28;20120;-66
2023/08/30 10:04:10;;;;;;;6.93;5.43;;;17.10;99.90;;;;;;4979174;28;20047;-66
2023/08/30 10:06:43;;;;;;;5.88;5.28;;;17.00;99.90;;;;;;4975363;28;20043;-65
2023/08/30 10:09:10;;;;;;;6.22;5.63;;;16.80;99.90;;;;;;4998610;28;20034;-66
2023/08/30 10:11:45;;;;;;;5.72;5.22;;;16.70;99.90;;;;;;5003826;28;20417;-66
2023/08/30 10:14:17;;;;;;;6.45;5.47;;;16.70;99.90;;;;;;4986028;28;20047;-66
2023/08/30 10:16:51;;;;;;;5.38;4.88;;;16.80;99.90;;;;;;5000974;28;20054;-66
2023/08/30 10:19:24;;;;;;;5.38;4.88;;;16.80;99.90;;;;;;4987389;28;20125;-66
2023/08/30 10:22:15;;;;;;;5.93;4.18;;;16.90;99.90;;;;;;4984427;28;20051;-66
2023/08/30 10:24:52;;;;;;;4.25;3.85;;;17.00;99.90;;;;;;4984617;28;20470;-66
2023/08/30 10:27:21;;;;;;;4.75;4.35;;;17.10;99.90;;;;;;4979727;28;20058;-66
2023/08/30 10:29:54;;;;;;;4.60;4.20;;;17.10;99.90;;;;;;4976998;28;20035;-66
2023/08/30 10:32:25;;;;;;;5.10;4.70;;;17.20;99.90;;;;;;4999905;28;20035;-66
2023/08/30 10:35:02;;;;;;;3.97;3.67;;;17.20;99.90;;;;;;4990837;28;20048;-66
2023/08/30 10:37:35;;;;;;;4.22;3.83;;;17.30;99.90;;;;;;4986009;28;20426;-66
2023/08/30 10:40:08;;;;;;;4.45;3.90;;;17.50;99.90;;;;;;4986922;28;20141;-66
2023/08/30 10:42:40;;;;;;;4.57;3.92;;;17.60;99.90;;;;;;4985688;28;20046;-66
2023/08/30 10:45:11;;;;;;;4.32;3.92;;;17.80;99.90;;;;;;4999852;28;20070;-66
2023/08/30 10:47:44;;;;;;;4.03;3.65;;;17.70;99.90;;;;;;4973986;28;20746;-66
2023/08/30 10:50:16;;;;;;;4.15;3.30;;;17.70;99.90;;;;;;4995660;28;20039;-66
2023/08/30 10:52:54;;;;;;;4.25;3.85;;;17.70;99.90;;;;;;4976027;28;20411;-66
2023/08/30 10:55:26;;;;;;;4.55;3.85;;;17.90;99.90;;;;;;4978810;28;20046;-66
2023/08/30 10:58:06;;;;;;;4.40;4.00;;;17.90;99.90;;;;;;4988822;28;20040;-66
2023/08/30 11:00:40;;;;;;;4.45;4.05;;;17.80;99.90;;;;;;4986331;28;20553;-66
2023/08/30 11:03:14;;;;;;;4.53;4.03;;;17.80;99.90;;;;;;4987968;28;20093;-66
2023/08/30 11:05:41;;;;;;;5.00;4.50;;;17.80;99.90;;;;;;4985973;28;20065;-66
2023/08/30 11:08:11;;;;;;;4.30;3.90;;;17.80;99.90;;;;;;4985005;28;20521;-66
2023/08/30 11:10:43;;;;;;;5.10;3.70;;;17.70;99.90;;;;;;4981696;28;20133;-66
2023/08/30 11:13:16;;;;;;;3.50;3.20;;;17.80;99.90;;;;;;4979299;28;20039;-66
2023/08/30 11:15:43;;;;;;;3.42;3.00;;;17.80;99.90;;;;;;4987667;28;20035;-66
2023/08/30 11:18:19;;;;;;;4.35;3.15;;;17.80;99.90;;;;;;4986550;28;20046;-65
2023/08/30 11:20:58;;;;;;;4.03;3.63;;;17.90;99.90;;;;;;4986735;28;20074;-66
2023/08/30 11:23:30;;;;;;;3.88;3.58;;;18.00;99.90;;;;;;4985187;28;20034;-66
2023/08/30 11:26:03;;;;;;;6.28;3.28;;;18.20;99.90;;;;;;5001427;28;20393;-66
2023/08/30 11:28:36;;;;;;;7.70;4.47;;;18.40;99.90;;;;;;4985136;28;20092;-65
2023/08/30 11:31:03;;;;;;;3.95;3.60;;;18.40;99.90;;;;;;4986308;28;20042;-66
2023/08/30 11:33:35;;;;;;;3.63;3.33;;;18.40;99.90;;;;;;4980023;28;20039;-66
2023/08/30 11:36:08;;;;;;;3.60;3.30;;;18.30;99.90;;;;;;4976946;28;20539;-66
2023/08/30 11:38:35;;;;;;;3.78;2.88;;;18.30;99.90;;;;;;4977395;28;20038;-66
2023/08/30 11:41:07;;;;;;;5.22;3.63;;;18.40;99.90;;;;;;4978112;28;20133;-66
2023/08/30 11:43:40;;;;;;;3.58;3.17;;;18.50;99.90;;;;;;4983981;28;20074;-66
2023/08/30 11:46:12;;;;;;;2.95;2.65;;;18.30;99.90;;;;;;4983834;28;20042;-65
2023/08/30 11:48:49;;;;;;;3.33;3.10;;;18.40;99.90;;;;;;4997377;28;20047;-66
2023/08/30 11:51:18;;;;;;;3.50;3.20;;;18.60;99.90;;;;;;4986575;28;20042;-66
2023/08/30 11:53:50;;;;;;;3.13;2.88;;;18.60;99.90;;;;;;5001801;28;20034;-66
2023/08/30 11:56:23;;;;;;;3.50;3.00;;;18.80;99.90;;;;;;4982660;28;20061;-66
2023/08/30 11:58:55;;;;;;;2.90;2.60;;;18.90;99.90;;;;;;4997855;28;20484;-66
2023/08/30 12:01:27;;;;;;;5.93;3.00;;;18.80;99.90;;;;;;4979537;28;20042;-66
2023/08/30 12:04:11;;;;;;;2.88;2.67;;;18.80;99.90;;;;;;4988819;28;20045;-66
2023/08/30 12:06:43;;;;;;;3.15;2.83;;;18.80;99.90;;;;;;4987169;28;20614;-66
2023/08/30 12:09:13;;;;;;;4.25;3.00;;;18.60;99.90;;;;;;4984288;28;20111;-66
2023/08/30 12:11:40;;;;;;;3.53;3.00;;;18.50;99.90;;;;;;4996928;28;20482;-66
2023/08/30 12:14:12;;;;;;;3.13;2.83;;;18.40;99.90;;;;;;4988901;28;20038;-66
2023/08/30 12:16:46;;;;;;;3.03;2.72;;;18.50;99.90;;;;;;4982936;28;20042;-66
2023/08/30 12:19:18;;;;;;;3.00;2.60;;;18.50;99.90;;;;;;4982609;28;20043;-66
2023/08/30 12:21:50;;;;;;;4.68;2.55;;;18.50;99.90;;;;;;4971446;28;20061;-66
2023/08/30 12:24:22;;;;;;;2.53;2.33;;;18.60;99.90;;;;;;4980374;28;20065;-65
2023/08/30 12:26:54;;;;;;;5.65;2.50;;;18.70;99.90;;;;;;4978654;28;20042;-66
2023/08/30 12:29:26;;;;;;;4.55;2.90;;;18.70;99.90;;;;;;4973899;28;20401;-66
2023/08/30 12:31:58;;;;;;;3.97;2.53;;;18.90;99.90;;;;;;4999406;28;20049;-66
2023/08/30 12:34:29;;;;;;;3.33;2.20;;;18.90;99.90;;;;;;4987726;28;20419;-66
2023/08/30 12:36:56;;;;;;;3.55;2.35;;;19.00;99.90;;;;;;4993162;28;20039;-66
2023/08/30 12:39:28;;;;;;;3.28;2.22;;;19.10;99.90;;;;;;5003147;28;20061;-66
2023/08/30 12:42:00;;;;;;;3.08;1.90;;;19.20;99.90;;;;;;4983741;28;20138;-66
2023/08/30 12:44:32;;;;;;;1.80;1.60;;;19.30;99.90;;;;;;4980954;28;20056;-66
2023/08/30 12:47:04;;;;;;;1.50;1.40;;;19.30;99.90;;;;;;4993761;28;20047;-66
2023/08/30 12:49:36;;;;;;;2.22;1.60;;;19.30;99.90;;;;;;4994594;28;20121;-66
2023/08/30 12:52:08;;;;;;;2.75;1.75;;;19.40;99.90;;;;;;4988490;28;20050;-66
2023/08/30 12:54:39;;;;;;;1.92;1.60;;;19.50;99.90;;;;;;4984384;28;20046;-66
2023/08/30 12:57:11;;;;;;;2.20;1.40;;;19.50;99.90;;;;;;4988131;28;20050;-66